Slide Mountain Weather observations

Data are for 10 minute period ending at time listed.
 Day   Time   Solar   Ave.   Ave.  Ave.  Vector  Max.    Baro.  
  of    of     Rad.   Air    Rel.  Wind   Wind   Wind   Press.  
Year   Day            Temp.  Hum.  Speed  Dir.   Gust           
2016   (PST)  Kw/m2    F      %     mph   deg.    mph     mb.   
-----------------------------------------------------------------
 123   17:40   0.14   42.5    55    4.9   270      8.9    715.0 
 123   17:50   0.03   40.0    60    2.6   278      4.5    715.0 
 123   18:00   0.03   38.8    64    5.5   278      7.7    715.0 
 123   18:10   0.08   39.0    64    5.1   280      7.3    715.0 
 123   18:20   0.07   40.1    61    3.2   310      4.3    715.0 
 123   18:30   0.03   39.6    61    0.6   334      4.0    715.1 
 123   18:40   0.01   39.3    58    0.1   346      0.1    715.1 
 123   18:50   0.01   39.4    56    0.0   337      0.1    715.1 
 123   19:00   0.00   39.3    55    0.4    66      1.6    715.1 
 123   19:10   0.00   39.2    54    2.1   119      3.4    715.1 
 123   19:20   0.00   39.0    55    4.5   117      7.3    715.2 
 123   19:30   0.00   38.8    57    8.0   116     10.7    715.2 
 123   19:40   0.00   38.8    58    7.1   119      8.9    715.3 
 123   19:50   0.00   38.7    58    6.1    97     10.0    715.3 
 123   20:00   0.00   38.8    57   11.7    93     16.5    715.4 
 123   20:10   0.00   38.8    57   11.2   102     16.3    715.4 
 123   20:20   0.00   38.6    58   11.9    92     14.3    715.4 
 123   20:30   0.00   38.5    59   14.0    92     17.3    715.4 
 123   20:40   0.00   38.5    58   17.5    91     22.0    715.4 
 123   20:50   0.00   38.7    56   18.7    94     22.7    715.4 
 123   21:00   0.00   38.4    59   13.5    96     18.1    715.5 
 123   21:10   0.00   38.0    60   11.1    93     13.9    715.5 
 123   21:20   0.00   37.9    61    9.8   113     12.8    715.6 
 123   21:30   0.00   38.0    62   12.7   124     14.6    715.5 
 123   21:40   0.00   37.7    63   10.3   128     12.0    715.6 
 123   21:50   0.00   37.6    63   10.1   130     12.4    715.5 
 123   22:00   0.00   37.8    62   11.4   122     14.6    715.5 
 123   22:10   0.00   37.6    64   11.7   121     13.8    715.5 
 123   22:20   0.00   37.6    63   10.1   109     12.2    715.5 
 123   22:30   0.00   37.7    63    9.6   104     12.2    715.5 
 123   22:40   0.00   37.5    63   13.3    91     16.3    715.5 
 123   22:50   0.00   38.0    60   18.2    89     20.8    715.4 
 123   23:00   0.00   38.1    59   19.5    84     22.4    715.4 
 123   23:10   0.00   37.8    61   19.0    86     21.6    715.4 
 123   23:20   0.00   37.1    63   18.8    78     20.7    715.5 
 123   23:30   0.00   37.0    63   19.7    80     23.0    715.5 
 123   23:40   0.00   37.4    61   22.6    91     26.1    715.4 
 123   23:50   0.00   37.7    60   22.7    94     25.8    715.4 
 124    0:00   0.00   37.7    60   22.4    93     27.1    715.3 
 124    0:10   0.00   37.8    60   22.5    94     26.9    715.3 
 124    0:20   0.00   37.7    60   21.6    94     26.4    715.2 
 124    0:30   0.00   37.7    60   23.2    94     28.8    715.2 
 124    0:40   0.00   37.7    61   23.8    96     28.4    715.1 
 124    0:50   0.00   37.7    62   23.3    96     28.1    715.0 
 124    1:00   0.00   37.8    62   23.2    98     28.2    715.0 
 124    1:10   0.00   37.7    62   21.6   100     26.4    715.0 
 124    1:20   0.00   37.8    62   21.8   107     25.5    715.0 
 124    1:30   0.00   37.8    62   19.5   112     23.8    715.0 
 124    1:40   0.00   37.7    62   20.1   118     22.0    715.0 
 124    1:50   0.00   37.8    62   21.2   119     23.5    715.0 
 124    2:00   0.00   37.8    62   20.9   120     24.2    714.9 
 124    2:10   0.00   37.5    62   18.1   118     20.8    715.0 
 124    2:20   0.00   37.3    63   17.9   125     21.5    715.0 
 124    2:30   0.00   37.0    64   17.6   131     20.8    715.0 
 124    2:40   0.00   36.8    65   16.0   132     18.8    715.0 
 124    2:50   0.00   36.4    66   15.5   138     18.7    715.0 
 124    3:00   0.00   36.1    66   14.9   138     18.0    714.9 
 124    3:10   0.00   36.0    66   15.2   140     22.2    714.9 
 124    3:20   0.00   36.0    66   14.6   141     21.9    714.9 
 124    3:30   0.00   35.8    67   15.3   144     19.6    714.9 
 124    3:40   0.00   36.1    66   18.3   149     20.4    714.9 
 124    3:50   0.00   36.3    66   19.6   152     21.2    714.9 
 124    4:00   0.00   36.3    67   18.2   152     20.2    714.8 
 124    4:10   0.00   36.2    68   16.0   153     19.1    714.9 
 124    4:20   0.00   36.1    68   16.7   152     19.8    714.9 
 124    4:30   0.00   36.1    68   16.7   154     20.3    714.9 
 124    4:40   0.00   36.2    68   13.3   166     16.5    715.0 
 124    4:50   0.00   36.2    68   11.6   176     14.5    715.0 
 124    5:00   0.01   36.3    68   10.7   182     12.5    715.0 
 124    5:10   0.01   36.6    68    9.5   182     11.2    715.0 
 124    5:20   0.03   36.9    66    9.1   192     10.7    715.1 
 124    5:30   0.05   37.4    64    8.1   196     10.2    715.2 
 124    5:40   0.08   38.0    63    6.9   201      8.7    715.3 
 124    5:50   0.11   38.4    61    7.1   198      8.9    715.3 
 124    6:00   0.14   39.0    60    7.4   202     10.0    715.4 
 124    6:10   0.17   39.5    59    5.9   202     10.1    715.4 
 124    6:20   0.20   39.6    58    7.0   213     13.4    715.5 
 124    6:30   0.22   39.1    57    8.8   222     16.0    715.5 
 124    6:40   0.24   39.4    56    6.7   224     10.5    715.6 
 124    6:50   0.28   39.9    54    7.4   218     13.9    715.6 
 124    7:00   0.32   40.5    53    7.6   215     13.8    715.6 
 124    7:10   0.35   41.1    52    7.1   216     13.8    715.7 
 124    7:20   0.32   40.4    55   10.0   212     19.0    715.8 
 124    7:30   0.37   40.2    57   10.9   222     18.8    715.8 
 124    7:40   0.42   41.4    55    6.4   210     17.0    715.8 
 124    7:50   0.47   43.2    55    5.9   195     15.3    715.9 
 124    8:00   0.49   42.0    56   10.5   211     17.6    715.9 
 124    8:10   0.48   42.2    58    7.7   216     13.7    715.9 
 124    8:20   0.53   42.2    57   10.5   211     18.0    715.9 
 124    8:30   0.46   42.6    57    7.5   214     14.0    716.0 
 124    8:40   0.56   42.4    56    8.9   214     18.1    716.0 
 124    8:50   0.57   43.8    56    4.9   202     10.4    716.0 
 124    9:00   0.64   44.4    57    4.9   177     11.2    716.1 
 124    9:10   0.47   43.5    58    3.5   214      9.1    716.1 
 124    9:20   0.73   45.0    56    3.6   177     10.1    716.2 
 124    9:30   0.38   44.0    58    4.9   166      8.7    716.2 
 124    9:40   0.54   43.6    60    3.7   154      9.4    716.2 
 124    9:50   0.42   42.4    62    4.5   129     13.5    716.3 
 124   10:00   0.62   42.3    62    8.3   129     16.1    716.3 
 124   10:10   0.84   42.6    61    9.4   124     15.1    716.3 
 124   10:20   0.64   41.9    64   12.6   123     17.7    716.3 
 124   10:30   0.43   41.9    61    9.1   133     15.5    716.3 
 124   10:40   0.32   43.0    58    5.6   160     12.5    716.4 
 124   10:50   0.30   42.7    57    6.0   139     17.7    716.3 
 124   11:00   0.50   42.1    54   12.3   131     23.4    716.3 
 124   11:10   0.53   42.2    52   11.9   147     19.1    716.3 
 124   11:20   0.47   42.7    52    5.5   155     12.8    716.3 
 124   11:30   0.62   43.8    51    7.2   147     15.7    716.2 
 124   11:40   0.54   43.2    52   11.1   137     21.9    716.1 
 124   11:50   0.36   42.7    53   10.0   129     17.6    716.1 
 124   12:00   0.32   42.8    55   10.5   145     16.1    716.1 
 124   12:10   0.45   43.4    54   11.6   149     19.2    716.0 
 124   12:20   0.31   42.4    54    8.0   138     15.2    716.0 
 124   12:30   0.34   43.2    54    5.6   144     12.1    716.0 
 124   12:40   0.31   43.2    54    6.1   154     14.2    715.9 
 124   12:50   0.38   43.3    54    7.9   140     11.7    715.9 
 124   13:00   0.49   43.9    52    5.3   142     10.4    715.9 
 124   13:10   0.39   44.6    50    2.0   198      7.6    715.8 
 124   13:20   0.26   44.2    51    6.7   154     11.7    715.8 
 124   13:30   0.26   43.7    53    7.4   140     14.6    715.8 
 124   13:40   0.54   44.0    52    9.0   148     18.8    715.7 
 124   13:50   0.36   45.0    51    9.4   144     13.8    715.7 
 124   14:00   0.23   43.9    52    8.4   145     13.9    715.7 
 124   14:10   0.41   44.1    50    6.3   154     10.9    715.6 
 124   14:20   0.38   45.4    49    5.0   220     10.4    715.5 
 124   14:30   0.73   47.4    44    7.2   235     11.8    715.4 
 124   14:40   0.73   48.0    44    5.1   242     11.5    715.4 
 124   14:50   0.62   48.5    43    3.5   219      9.1    715.3 
 124   15:00   0.49   47.5    45    5.3   242     10.0    715.2 
 124   15:10   0.54   47.6    44    6.6   240     11.8    715.2 
 124   15:20   0.46   46.8    46    6.1   248     12.3    715.1 
 124   15:30   0.37   45.7    47    8.3   248     13.8    715.0 
 124   15:40   0.26   44.8    50    8.6   249     12.6    715.0 
 124   15:50   0.27   44.9    51    5.8   239     11.8    714.9 
 124   16:00   0.28   44.5    53    7.9   247     13.1    714.9 
 124   16:10   0.19   43.3    59    9.3   248     12.4    714.9 
 124   16:20   0.14   41.2    67   11.4   262     13.3    714.8 
 124   16:30   0.12   40.2    71   12.1   261     14.8    714.8 
 124   16:40   0.10   39.7    74   10.3   267     13.5    714.7 
 124   16:50   0.10   39.5    76    7.0   276      9.3    714.7 
 124   17:00   0.10   39.4    76    7.4   276     11.2    714.6 
 124   17:10   0.09   39.2    75    7.2   266     10.9    714.6 
 124   17:20   0.08   38.9    76    8.2   259     12.8    714.5 
 124   17:30   0.07   38.3    82   11.2   267     15.7    714.5 

Return to Slide Mountain graphs page.


Western Regional Climate Center,wrcc@dri.edu